Bethlehem, New Hampshire
Current Conditions -  °F | °C
As of 10:52 PM on Sunday 21 Dec 2014 (Local Time) from KHIE Reporting Station
Overcast Overcast  
Wind Chill: 26°   Ceiling: 3200
Heat Index: 26°   Visibility: 10mi
Dew Point: 23°   Wind: 0mph
Humidity: 88%   Direction: NA
Pressure: 30.33"   Gusts: NA
Location:  44.28°N, 71.69°W
Report Text: KHIE 220352Z AUTO 00000KT 10SM FEW014 OVC032 M03/M05 A3033 RMK AO2 SLP289 T10331050
Loading
Personal Weather Stations






























Interactive Weather Map New forecast layout! Learn more

10-Day Weather Forecast

Advertisements
Track Severe Weather on mobile